Time;durP1;ratioP1;P1;durP2;ratioP2;P2;SDS_P1;SDS_P2;PMS_P1;PMS_P2;Temp;Humidity;BMP_temperature;BMP_pressure;BME280_temperature;BME280_humidity;BME280_pressure;Samples;Min_cycle;Max_cycle;Signal;HPM_P1;HPM_P2
2023/02/01 00:02:02;;;;;;;35.67;5.88;;;6.00;99.90;;;;;;5095392;27;20160;-64
2023/02/01 00:04:28;;;;;;;18.95;3.42;;;6.00;99.90;;;;;;5086231;28;20135;-64
2023/02/01 00:06:54;;;;;;;14.65;2.83;;;6.10;99.90;;;;;;5088565;28;20658;-64
2023/02/01 00:09:20;;;;;;;27.95;3.10;;;6.00;99.90;;;;;;5087069;28;20048;-64
2023/02/01 00:11:46;;;;;;;37.22;5.47;;;6.00;99.90;;;;;;5099268;28;20075;-64
2023/02/01 00:14:13;;;;;;;16.50;2.30;;;6.00;99.90;;;;;;5105548;28;20123;-64
2023/02/01 00:16:39;;;;;;;33.28;4.88;;;6.00;99.90;;;;;;5142021;27;20086;-64
2023/02/01 00:19:09;;;;;;;24.10;5.00;;;6.00;99.90;;;;;;5107300;28;20537;-64
2023/02/01 00:21:35;;;;;;;30.92;5.85;;;6.00;99.90;;;;;;5108279;28;20431;-64
2023/02/01 00:24:01;;;;;;;19.45;2.90;;;6.00;99.90;;;;;;5089776;28;20047;-64
2023/02/01 00:26:36;;;;;;;46.03;8.68;;;6.10;99.90;;;;;;5102301;28;20047;-64
2023/02/01 00:29:06;;;;;;;42.42;8.23;;;6.10;99.90;;;;;;5100533;28;20043;-64
2023/02/01 00:31:31;;;;;;;12.48;3.15;;;6.10;99.90;;;;;;5107402;28;20035;-64
2023/02/01 00:33:57;;;;;;;19.40;3.45;;;6.10;99.90;;;;;;5107829;28;20509;-64
2023/02/01 00:36:23;;;;;;;36.28;7.38;;;6.10;99.90;;;;;;5107879;28;20050;-64
2023/02/01 00:38:49;;;;;;;32.30;5.60;;;6.10;99.90;;;;;;5107924;28;20043;-64
2023/02/01 00:41:18;;;;;;;42.50;7.18;;;6.10;99.90;;;;;;5107912;28;20062;-64
2023/02/01 00:43:44;;;;;;;24.17;4.90;;;6.10;99.90;;;;;;5099864;28;20432;-64
2023/02/01 00:46:12;;;;;;;18.70;3.97;;;6.10;99.90;;;;;;5100335;28;20111;-64
2023/02/01 00:48:38;;;;;;;26.73;4.55;;;6.20;99.90;;;;;;5107392;28;20040;-63
2023/02/01 00:51:07;;;;;;;15.40;2.78;;;6.20;99.90;;;;;;5107533;27;20081;-64
2023/02/01 00:53:33;;;;;;;18.08;2.70;;;6.10;99.90;;;;;;5107184;28;20297;-64
2023/02/01 00:55:59;;;;;;;39.45;7.65;;;6.20;99.90;;;;;;5107748;28;20424;-64
2023/02/01 00:58:26;;;;;;;12.60;2.67;;;6.20;99.90;;;;;;5106134;28;20055;-64
2023/02/01 01:01:04;;;;;;;10.32;2.45;;;6.10;99.90;;;;;;5104395;28;20035;-64
2023/02/01 01:03:33;;;;;;;34.47;6.63;;;6.10;99.90;;;;;;5107678;28;20539;-64
2023/02/01 01:06:00;;;;;;;7.45;1.92;;;6.20;99.90;;;;;;5103313;28;20453;-64
2023/02/01 01:08:26;;;;;;;28.33;5.68;;;6.20;99.90;;;;;;5072774;28;20046;-64
2023/02/01 01:10:52;;;;;;;36.03;5.63;;;6.20;99.90;;;;;;5100990;28;20043;-64
2023/02/01 01:13:17;;;;;;;31.52;5.45;;;6.30;99.90;;;;;;5093813;28;20047;-64
2023/02/01 01:15:43;;;;;;;10.48;2.58;;;6.30;99.90;;;;;;5108157;28;20044;-64
2023/02/01 01:18:09;;;;;;;30.75;5.63;;;6.30;99.90;;;;;;5106852;28;20043;-64
2023/02/01 01:20:37;;;;;;;35.72;5.50;;;6.20;99.90;;;;;;5097345;28;20048;-64
2023/02/01 01:23:06;;;;;;;34.65;6.57;;;6.30;99.90;;;;;;5089162;28;20097;-64
2023/02/01 01:25:32;;;;;;;19.67;3.95;;;6.30;99.90;;;;;;5140274;27;20100;-64
2023/02/01 01:27:58;;;;;;;13.13;2.53;;;6.30;99.90;;;;;;5105155;28;20027;-64
2023/02/01 01:30:24;;;;;;;15.20;2.40;;;6.20;99.90;;;;;;5094425;28;20390;-64
2023/02/01 01:32:51;;;;;;;5.60;1.73;;;6.30;99.90;;;;;;5140350;27;20043;-64
2023/02/01 01:35:17;;;;;;;17.75;3.53;;;6.30;99.90;;;;;;5105991;28;20137;-64
2023/02/01 01:37:43;;;;;;;21.85;3.35;;;6.20;99.90;;;;;;5128792;27;20044;-64
2023/02/01 01:40:10;;;;;;;10.95;1.88;;;6.20;99.90;;;;;;5085896;28;20043;-64
2023/02/01 01:42:43;;;;;;;9.32;2.42;;;6.20;99.90;;;;;;5096721;28;20204;-64
2023/02/01 01:45:24;;;;;;;33.40;6.10;;;6.20;99.90;;;;;;5139890;27;20074;-64
2023/02/01 01:48:05;;;;;;;39.60;6.78;;;6.20;99.90;;;;;;5107197;28;20040;-64
2023/02/01 01:50:39;;;;;;;7.20;2.00;;;6.20;99.90;;;;;;5105503;28;20370;-64
2023/02/01 01:53:08;;;;;;;9.50;2.00;;;6.20;99.90;;;;;;5110732;28;20432;-64
2023/02/01 01:55:38;;;;;;;16.70;3.50;;;6.20;99.90;;;;;;5111269;28;20036;-64
2023/02/01 01:58:07;;;;;;;11.13;2.17;;;6.20;99.90;;;;;;5110224;28;20067;-64
2023/02/01 02:00:34;;;;;;;20.98;3.70;;;6.20;99.90;;;;;;5110525;28;20481;-64
2023/02/01 02:03:11;;;;;;;17.92;3.75;;;6.20;99.90;;;;;;5111322;28;20416;-64
2023/02/01 02:05:37;;;;;;;36.17;6.32;;;6.20;99.90;;;;;;5108423;28;20101;-64
2023/02/01 02:08:03;;;;;;;17.08;3.38;;;6.20;99.90;;;;;;5111179;28;20043;-64
2023/02/01 02:13:16;;;;;;;38.38;6.05;;;6.20;99.90;;;;;;5099347;28;20048;-64
2023/02/01 02:15:51;;;;;;;26.30;4.05;;;6.10;99.90;;;;;;5110311;28;20374;-64
2023/02/01 02:18:30;;;;;;;22.40;4.60;;;6.10;99.90;;;;;;5109958;28;20201;-64
2023/02/01 02:21:02;;;;;;;17.98;3.45;;;6.10;99.90;;;;;;5111014;28;20055;-64
2023/02/01 02:23:52;;;;;;;10.27;2.35;;;6.00;99.90;;;;;;5108260;28;20064;-64
2023/02/01 02:26:40;;;;;;;18.42;2.72;;;6.00;99.90;;;;;;5110283;28;20401;-64
2023/02/01 02:29:27;;;;;;;21.70;4.03;;;6.00;99.90;;;;;;5110556;28;20047;-63
2023/02/01 02:32:18;;;;;;;24.80;4.05;;;6.00;99.90;;;;;;5098637;28;20553;-64
2023/02/01 02:34:55;;;;;;;29.42;2.95;;;5.90;99.90;;;;;;5110282;28;20051;-64
2023/02/01 02:37:36;;;;;;;15.75;2.42;;;6.00;99.90;;;;;;5110984;27;20390;-64
2023/02/01 02:40:12;;;;;;;28.58;5.82;;;6.00;99.90;;;;;;5109614;27;20047;-64
2023/02/01 02:49:19;;;;;;;18.95;3.22;;;5.90;99.90;;;;;;5114543;27;20051;-65
2023/02/01 02:54:46;;;;;;;23.23;4.50;;;5.80;99.90;;;;;;5109892;28;20901;-65
2023/02/01 03:05:50;;;;;;;22.52;1.98;;;5.90;99.90;;;;;;5111139;27;20142;-65
2023/02/01 03:08:30;;;;;;;9.07;2.15;;;5.90;99.90;;;;;;5110336;27;20159;-65
2023/02/01 03:11:07;;;;;;;6.65;1.52;;;5.90;99.90;;;;;;5102974;28;20457;-65
2023/02/01 03:13:57;;;;;;;5.82;1.60;;;5.90;99.90;;;;;;5108141;28;20083;-65
2023/02/01 03:16:31;;;;;;;9.65;1.77;;;5.90;99.90;;;;;;5094206;28;20185;-65
2023/02/01 03:19:05;;;;;;;12.38;1.98;;;5.90;99.90;;;;;;5109107;28;20484;-65
2023/02/01 03:21:43;;;;;;;15.88;3.17;;;6.00;99.90;;;;;;5096059;28;20035;-65
2023/02/01 03:24:43;;;;;;;31.60;4.70;;;6.00;99.90;;;;;;5108532;28;20032;-65
2023/02/01 03:27:33;;;;;;;5.65;1.75;;;6.00;99.90;;;;;;5074252;27;20451;-65
2023/02/01 03:30:11;;;;;;;7.10;1.33;;;6.00;99.90;;;;;;5103617;28;20532;-65
2023/02/01 03:32:58;;;;;;;11.15;1.65;;;6.00;99.90;;;;;;5107483;28;20052;-65
2023/02/01 03:35:48;;;;;;;28.75;5.05;;;6.00;99.90;;;;;;5109273;28;20401;-65
2023/02/01 03:38:33;;;;;;;11.82;2.50;;;6.00;99.90;;;;;;5109543;28;20535;-65
2023/02/01 03:41:15;;;;;;;12.48;3.30;;;6.00;99.90;;;;;;5108272;28;20058;-65
2023/02/01 03:44:10;;;;;;;12.98;3.35;;;6.10;99.90;;;;;;5097497;27;20040;-65
2023/02/01 03:46:47;;;;;;;12.23;2.38;;;6.20;99.90;;;;;;5093102;27;20047;-65
2023/02/01 03:49:20;;;;;;;17.35;3.42;;;6.20;99.90;;;;;;5108736;28;20035;-65
2023/02/01 03:51:49;;;;;;;39.70;7.32;;;6.30;99.90;;;;;;5108345;27;20146;-65
2023/02/01 03:54:18;;;;;;;14.05;3.10;;;6.30;99.90;;;;;;5110971;27;20038;-65
2023/02/01 03:56:47;;;;;;;15.40;3.22;;;6.20;99.90;;;;;;5107166;28;20053;-65
2023/02/01 03:59:13;;;;;;;11.32;3.13;;;6.20;99.90;;;;;;5106776;28;20068;-65
2023/02/01 04:01:40;;;;;;;15.90;2.95;;;6.10;99.90;;;;;;5132965;27;20075;-65
2023/02/01 04:04:06;;;;;;;44.83;7.75;;;6.10;99.90;;;;;;5108820;28;20044;-65
2023/02/01 04:06:32;;;;;;;19.85;3.38;;;6.00;99.90;;;;;;5107811;28;20023;-65
2023/02/01 04:08:58;;;;;;;27.48;4.70;;;6.00;99.90;;;;;;5139581;27;20494;-65
2023/02/01 04:11:24;;;;;;;23.05;4.70;;;5.80;99.90;;;;;;5100136;28;20089;-65
2023/02/01 04:13:50;;;;;;;43.55;7.60;;;5.70;99.90;;;;;;5101500;28;20047;-64
2023/02/01 04:16:16;;;;;;;47.58;8.05;;;5.60;99.90;;;;;;5106358;28;20075;-64
2023/02/01 04:18:42;;;;;;;44.47;9.48;;;5.60;99.90;;;;;;5110304;27;20043;-64
2023/02/01 04:21:08;;;;;;;40.42;7.68;;;5.50;99.90;;;;;;5108335;28;20048;-65
2023/02/01 04:23:33;;;;;;;40.30;6.75;;;5.40;99.90;;;;;;5108019;28;20043;-65
2023/02/01 04:26:01;;;;;;;44.58;9.35;;;5.30;99.90;;;;;;5108083;28;20042;-64
2023/02/01 04:28:27;;;;;;;50.67;8.43;;;5.40;99.90;;;;;;5107420;28;20335;-65
2023/02/01 04:30:53;;;;;;;42.97;6.63;;;5.40;99.90;;;;;;5109660;27;20130;-65
2023/02/01 04:33:18;;;;;;;47.05;7.10;;;5.50;99.90;;;;;;5139733;27;20134;-65
2023/02/01 04:35:44;;;;;;;35.35;6.47;;;5.50;99.90;;;;;;5108287;28;20126;-65
2023/02/01 04:38:10;;;;;;;32.50;5.25;;;5.60;99.90;;;;;;5107292;28;20043;-65
2023/02/01 04:40:37;;;;;;;43.50;6.70;;;5.70;99.90;;;;;;5139024;27;20048;-65
2023/02/01 04:43:04;;;;;;;46.45;8.57;;;5.80;99.90;;;;;;5089562;28;20047;-65
2023/02/01 04:45:30;;;;;;;41.28;7.97;;;5.80;99.90;;;;;;5107307;28;20039;-65
2023/02/01 04:47:55;;;;;;;33.60;7.03;;;5.90;99.90;;;;;;5107437;28;20500;-65
2023/02/01 04:50:21;;;;;;;37.65;6.93;;;5.90;99.90;;;;;;5108036;27;20035;-65
2023/02/01 04:52:47;;;;;;;29.20;6.30;;;5.90;99.90;;;;;;5107839;28;20118;-65
2023/02/01 04:55:13;;;;;;;47.45;9.00;;;6.00;99.90;;;;;;5088755;28;20676;-65
2023/02/01 04:57:40;;;;;;;46.88;6.05;;;6.00;99.90;;;;;;5106096;28;20051;-65
2023/02/01 05:00:09;;;;;;;51.42;8.35;;;6.00;99.90;;;;;;5107820;28;20067;-65
2023/02/01 05:02:34;;;;;;;27.40;5.07;;;6.00;99.90;;;;;;5106551;27;20107;-65
2023/02/01 05:05:01;;;;;;;20.65;3.63;;;6.00;99.90;;;;;;5107968;28;20648;-65
2023/02/01 05:07:27;;;;;;;16.10;3.50;;;6.00;99.90;;;;;;5106972;28;20055;-65
2023/02/01 05:09:52;;;;;;;46.53;8.05;;;6.10;99.90;;;;;;5107749;28;20048;-65
2023/02/01 05:15:03;;;;;;;31.83;6.05;;;6.10;99.90;;;;;;5107245;28;20044;-65
2023/02/01 05:17:29;;;;;;;38.97;6.13;;;6.10;99.90;;;;;;5140472;27;20199;-65
2023/02/01 05:19:54;;;;;;;43.85;9.18;;;6.10;99.90;;;;;;5106798;28;20086;-65
2023/02/01 05:22:20;;;;;;;22.35;5.18;;;6.10;99.90;;;;;;5103474;28;20036;-65
2023/02/01 05:24:46;;;;;;;41.97;7.15;;;6.10;99.90;;;;;;5118270;27;20471;-65
2023/02/01 05:27:12;;;;;;;34.40;5.60;;;6.10;99.90;;;;;;5135075;27;20039;-65
2023/02/01 05:29:38;;;;;;;41.95;6.88;;;6.10;99.90;;;;;;5110705;27;20044;-65
2023/02/01 05:32:04;;;;;;;39.75;6.68;;;6.10;99.90;;;;;;5102480;27;20484;-65
2023/02/01 05:34:29;;;;;;;25.90;3.75;;;6.10;99.90;;;;;;5112255;27;20126;-65
2023/02/01 05:36:55;;;;;;;42.50;8.65;;;6.10;99.90;;;;;;5110965;28;20070;-65
2023/02/01 05:39:21;;;;;;;32.47;6.20;;;6.10;99.90;;;;;;5110338;28;20519;-65
2023/02/01 05:41:47;;;;;;;43.85;7.28;;;6.10;99.90;;;;;;5108997;28;20055;-65
2023/02/01 05:44:12;;;;;;;37.50;6.82;;;6.00;99.90;;;;;;5112931;27;20048;-65
2023/02/01 05:46:38;;;;;;;49.05;6.85;;;6.00;99.90;;;;;;5108965;28;20058;-65
2023/02/01 05:49:04;;;;;;;40.85;8.43;;;6.00;99.90;;;;;;5092344;28;20056;-65
2023/02/01 05:51:30;;;;;;;22.05;2.95;;;6.00;99.90;;;;;;5110637;28;20089;-65
2023/02/01 05:53:56;;;;;;;39.40;7.07;;;6.00;99.90;;;;;;5092929;28;20478;-65
2023/02/01 05:56:22;;;;;;;42.83;7.50;;;6.10;99.90;;;;;;5143535;27;20126;-65
2023/02/01 05:58:47;;;;;;;53.20;7.05;;;6.00;99.90;;;;;;5106150;28;20115;-65
2023/02/01 06:01:13;;;;;;;40.25;6.32;;;6.00;99.90;;;;;;5102732;28;20450;-65
2023/02/01 06:03:39;;;;;;;49.95;8.45;;;6.00;99.90;;;;;;5091512;27;20105;-65
2023/02/01 06:06:05;;;;;;;45.25;7.88;;;6.00;99.90;;;;;;5110564;27;20039;-65
2023/02/01 06:08:32;;;;;;;62.53;9.07;;;6.00;99.90;;;;;;5093268;27;20047;-65
2023/02/01 06:11:03;;;;;;;30.83;4.78;;;6.00;99.90;;;;;;5141378;27;20042;-65
2023/02/01 06:13:28;;;;;;;43.33;9.30;;;6.00;99.90;;;;;;5110809;28;20116;-65
2023/02/01 06:15:55;;;;;;;48.78;9.27;;;6.10;99.90;;;;;;5110814;27;20526;-65
2023/02/01 06:18:21;;;;;;;50.85;9.63;;;6.10;99.90;;;;;;5110610;28;20055;-65
2023/02/01 06:20:53;;;;;;;44.72;9.73;;;6.00;99.90;;;;;;5109775;27;20044;-65
2023/02/01 06:23:19;;;;;;;62.72;9.55;;;6.00;99.90;;;;;;5111404;27;20036;-65
2023/02/01 06:25:45;;;;;;;38.28;5.93;;;6.00;99.90;;;;;;5120128;27;20039;-65
2023/02/01 06:28:11;;;;;;;50.88;7.80;;;6.00;99.90;;;;;;5096272;28;20035;-65
2023/02/01 06:30:40;;;;;;;44.90;7.22;;;6.00;99.90;;;;;;5114641;27;20050;-65
2023/02/01 06:33:06;;;;;;;22.45;4.10;;;6.00;99.90;;;;;;5097239;27;20036;-65
2023/02/01 06:35:32;;;;;;;51.55;9.05;;;6.10;99.90;;;;;;5090072;28;20052;-65
2023/02/01 06:37:58;;;;;;;48.78;9.25;;;6.10;99.90;;;;;;5087086;28;20047;-65
2023/02/01 06:40:24;;;;;;;50.47;8.02;;;6.00;99.90;;;;;;5095126;27;20040;-65
2023/02/01 06:42:49;;;;;;;29.33;4.30;;;6.00;99.90;;;;;;5095256;28;20070;-65
2023/02/01 06:45:16;;;;;;;24.45;4.53;;;6.00;99.90;;;;;;5089579;28;20040;-65
2023/02/01 06:47:42;;;;;;;38.53;5.78;;;6.10;99.90;;;;;;5089135;28;20602;-65
2023/02/01 06:50:08;;;;;;;48.45;10.27;;;6.00;99.90;;;;;;5102680;28;20076;-65
2023/02/01 06:52:35;;;;;;;41.20;7.22;;;6.00;99.90;;;;;;5098253;28;20040;-65
2023/02/01 06:55:01;;;;;;;40.67;7.07;;;6.00;99.90;;;;;;5088298;28;20051;-65
2023/02/01 06:57:30;;;;;;;40.55;8.05;;;5.90;99.90;;;;;;5088545;28;20096;-65
2023/02/01 06:59:56;;;;;;;40.85;7.43;;;5.90;99.90;;;;;;5088510;28;20054;-65
2023/02/01 07:02:22;;;;;;;54.47;8.93;;;5.80;99.90;;;;;;5104121;27;20114;-65
2023/02/01 07:04:47;;;;;;;28.58;5.18;;;5.80;99.90;;;;;;5095874;28;20131;-65
2023/02/01 07:07:14;;;;;;;32.97;5.53;;;5.90;99.90;;;;;;5088598;28;20040;-65
2023/02/01 07:09:39;;;;;;;57.40;8.00;;;5.90;99.90;;;;;;5128861;27;20055;-65
2023/02/01 07:12:06;;;;;;;43.60;7.68;;;6.00;99.90;;;;;;5113226;27;20509;-65
2023/02/01 07:14:31;;;;;;;37.33;8.43;;;6.00;99.90;;;;;;5110715;27;20042;-65
2023/02/01 07:16:57;;;;;;;42.92;6.30;;;6.00;99.90;;;;;;5110017;27;20448;-65
2023/02/01 07:19:23;;;;;;;46.53;8.10;;;6.10;99.90;;;;;;5110425;27;20071;-65
2023/02/01 07:21:48;;;;;;;32.53;5.30;;;6.10;99.90;;;;;;5107313;28;20043;-65
2023/02/01 07:24:14;;;;;;;35.22;4.30;;;6.10;99.90;;;;;;5108166;28;20504;-65
2023/02/01 07:26:40;;;;;;;51.65;8.43;;;6.10;99.90;;;;;;5104337;28;20035;-65
2023/02/01 07:29:06;;;;;;;23.48;4.47;;;6.10;99.90;;;;;;5103946;27;20036;-65
2023/02/01 07:31:33;;;;;;;28.05;5.75;;;6.10;99.90;;;;;;5091126;28;20047;-65
2023/02/01 07:34:00;;;;;;;43.53;8.32;;;6.20;99.90;;;;;;5087596;28;20101;-65
2023/02/01 07:36:26;;;;;;;27.80;5.15;;;6.20;99.90;;;;;;5089216;28;20052;-65
2023/02/01 07:38:52;;;;;;;41.72;6.63;;;6.20;99.90;;;;;;5089178;28;20043;-65
2023/02/01 07:41:18;;;;;;;40.28;6.57;;;6.20;99.90;;;;;;5088037;28;20052;-65
2023/02/01 07:43:44;;;;;;;44.88;6.75;;;6.20;99.90;;;;;;5120818;27;20040;-65
2023/02/01 07:46:11;;;;;;;39.10;5.75;;;6.20;99.90;;;;;;5120326;27;20032;-65
2023/02/01 07:48:36;;;;;;;39.38;6.53;;;6.20;99.90;;;;;;5103069;28;20044;-65
2023/02/01 07:51:14;;;;;;;27.88;3.97;;;6.20;99.90;;;;;;5098142;28;20047;-65
2023/02/01 07:53:41;;;;;;;24.92;5.13;;;6.30;99.90;;;;;;5104775;28;20036;-65
2023/02/01 07:56:15;;;;;;;24.23;4.68;;;6.30;99.90;;;;;;5106527;28;20389;-66
2023/02/01 07:58:41;;;;;;;6.72;1.50;;;6.40;99.90;;;;;;5106171;28;20148;-66
2023/02/01 08:01:20;;;;;;;19.08;1.90;;;6.40;99.90;;;;;;5100954;28;20094;-66
2023/02/01 08:03:47;;;;;;;31.95;5.07;;;6.40;99.90;;;;;;5100380;28;20047;-66
2023/02/01 08:06:13;;;;;;;25.13;4.78;;;6.40;99.90;;;;;;5103151;28;20059;-66
2023/02/01 08:08:39;;;;;;;51.58;6.63;;;6.30;99.90;;;;;;5120651;27;20047;-66
2023/02/01 08:11:06;;;;;;;10.65;2.10;;;6.40;99.90;;;;;;5082581;28;20043;-66
2023/02/01 08:13:34;;;;;;;44.17;6.38;;;6.40;99.90;;;;;;5104805;28;20038;-66
2023/02/01 08:16:02;;;;;;;38.65;5.25;;;6.40;99.90;;;;;;5102010;28;20039;-66
2023/02/01 08:18:28;;;;;;;25.77;4.70;;;6.40;99.90;;;;;;5102204;28;20047;-66
2023/02/01 08:20:55;;;;;;;43.53;7.95;;;6.40;99.90;;;;;;5097327;28;20048;-66
2023/02/01 08:23:21;;;;;;;27.83;5.35;;;6.40;99.90;;;;;;5101306;28;20061;-66
2023/02/01 08:25:47;;;;;;;18.48;2.45;;;6.40;99.90;;;;;;5119809;27;20549;-66
2023/02/01 08:28:14;;;;;;;28.73;4.00;;;6.40;99.90;;;;;;5127688;27;20122;-65
2023/02/01 08:30:41;;;;;;;15.02;2.83;;;6.40;99.90;;;;;;5085817;28;20115;-66
2023/02/01 08:33:07;;;;;;;31.80;3.72;;;6.40;99.90;;;;;;5091746;28;20042;-66
2023/02/01 08:35:37;;;;;;;39.85;7.35;;;6.40;99.90;;;;;;5090292;28;20044;-66
2023/02/01 08:38:04;;;;;;;38.83;6.32;;;6.40;99.90;;;;;;5092319;28;20181;-66
2023/02/01 08:40:30;;;;;;;49.47;8.35;;;6.40;99.90;;;;;;5076243;28;20052;-66
2023/02/01 08:42:56;;;;;;;36.45;6.35;;;6.40;99.90;;;;;;5102046;28;20044;-64
2023/02/01 08:45:26;;;;;;;26.63;4.35;;;6.40;99.90;;;;;;5093518;28;20153;-64
2023/02/01 08:47:52;;;;;;;7.28;1.92;;;6.50;99.90;;;;;;5087245;28;20055;-64
2023/02/01 08:50:19;;;;;;;25.13;3.20;;;6.40;99.90;;;;;;5094414;28;20482;-63
2023/02/01 08:52:46;;;;;;;7.32;2.35;;;6.50;99.90;;;;;;5086838;28;20044;-64
2023/02/01 08:55:12;;;;;;;14.98;2.97;;;6.50;99.90;;;;;;5119267;27;20028;-64
2023/02/01 08:57:38;;;;;;;9.13;2.28;;;6.50;99.90;;;;;;5092090;28;20050;-64
2023/02/01 09:00:08;;;;;;;14.27;2.92;;;6.50;99.90;;;;;;5092003;28;20044;-63
2023/02/01 09:02:34;;;;;;;6.65;2.33;;;6.50;99.90;;;;;;5122186;27;20063;-64
2023/02/01 09:04:59;;;;;;;15.15;3.53;;;6.60;99.90;;;;;;5086156;28;20070;-64
2023/02/01 09:07:25;;;;;;;23.05;3.75;;;6.50;99.90;;;;;;5086132;28;20545;-64
2023/02/01 09:09:52;;;;;;;7.85;2.08;;;6.50;99.90;;;;;;5101344;28;20127;-64
2023/02/01 09:12:18;;;;;;;22.88;4.05;;;6.60;99.90;;;;;;5106859;28;20055;-64
2023/02/01 09:14:44;;;;;;;8.85;1.45;;;6.60;99.90;;;;;;5089480;28;20059;-64
2023/02/01 09:17:09;;;;;;;9.65;2.03;;;6.60;99.90;;;;;;5107267;28;20027;-64
2023/02/01 09:19:35;;;;;;;13.38;2.10;;;6.60;99.90;;;;;;5106818;28;20187;-64
2023/02/01 09:22:01;;;;;;;23.65;4.28;;;6.60;99.90;;;;;;5106270;28;20039;-63
2023/02/01 09:24:27;;;;;;;8.60;2.67;;;6.60;99.90;;;;;;5130983;27;20040;-63
2023/02/01 09:26:53;;;;;;;7.57;1.77;;;6.60;99.90;;;;;;5139575;27;20104;-64
2023/02/01 09:29:18;;;;;;;27.30;4.80;;;6.60;99.90;;;;;;5105648;28;20039;-64
2023/02/01 09:31:44;;;;;;;22.95;3.78;;;6.60;99.90;;;;;;5078107;28;20050;-63
2023/02/01 09:34:11;;;;;;;15.07;3.20;;;6.60;99.90;;;;;;5081984;28;20059;-63
2023/02/01 09:36:37;;;;;;;7.32;1.88;;;6.60;99.90;;;;;;5106905;28;20040;-66
2023/02/01 09:39:03;;;;;;;5.68;1.23;;;6.60;99.90;;;;;;5104219;28;20074;-66
2023/02/01 09:41:53;;;;;;;26.63;2.63;;;6.60;99.90;;;;;;5102905;28;20501;-66
2023/02/01 09:44:22;;;;;;;;;;;6.60;99.90;;;;;;5105087;28;20557;-66
2023/02/01 09:46:51;;;;;;;16.48;2.35;;;6.70;99.90;;;;;;5107508;28;19946;-65
2023/02/01 09:49:23;;;;;;;9.25;1.88;;;6.60;99.90;;;;;;5105867;28;20130;-66
2023/02/01 09:51:52;;;;;;;23.63;4.35;;;6.70;99.90;;;;;;5104775;28;20047;-66
2023/02/01 09:54:27;;;;;;;22.20;3.97;;;6.70;99.90;;;;;;5106804;28;20432;-66
2023/02/01 09:57:09;;;;;;;6.25;1.90;;;6.70;99.90;;;;;;5101654;28;20043;-66
2023/02/01 09:59:44;;;;;;;6.50;1.83;;;6.70;99.90;;;;;;5105926;28;20050;-66
2023/02/01 10:02:22;;;;;;;14.07;1.60;;;6.60;99.90;;;;;;5103575;28;20043;-66
2023/02/01 10:04:49;;;;;;;12.45;2.28;;;6.60;99.90;;;;;;5103773;28;20046;-66
2023/02/01 10:07:37;;;;;;;16.13;2.85;;;6.60;99.90;;;;;;5089511;28;20040;-66
2023/02/01 10:10:21;;;;;;;4.32;1.05;;;6.50;99.90;;;;;;5091607;28;20151;-66
2023/02/01 10:12:59;;;;;;;3.55;0.93;;;6.40;99.90;;;;;;5106257;28;20354;-66
2023/02/01 10:15:54;;;;;;;11.15;1.33;;;6.30;99.90;;;;;;5108434;28;20073;-66
2023/02/01 10:18:39;;;;;;;19.85;3.13;;;6.30;99.90;;;;;;5108675;28;20039;-66
2023/02/01 10:21:41;;;;;;;11.57;2.08;;;6.30;99.90;;;;;;5128846;27;20046;-66
2023/02/01 10:24:34;;;;;;;6.32;1.50;;;6.20;99.90;;;;;;5102951;28;20050;-66
2023/02/01 10:27:20;;;;;;;5.78;1.45;;;6.20;99.90;;;;;;5107032;28;20079;-66
2023/02/01 10:29:57;;;;;;;5.15;1.30;;;6.10;99.90;;;;;;5103048;28;20119;-66
2023/02/01 10:32:29;;;;;;;6.63;1.15;;;6.10;99.90;;;;;;5104793;28;20075;-66
2023/02/01 10:35:13;;;;;;;9.00;2.05;;;6.10;99.90;;;;;;5087512;28;20060;-66
2023/02/01 10:37:41;;;;;;;4.65;1.80;;;6.10;99.90;;;;;;5122383;27;20119;-66
2023/02/01 10:40:21;;;;;;;7.95;1.40;;;6.10;99.90;;;;;;5087282;28;20136;-66
2023/02/01 10:42:49;;;;;;;10.52;1.35;;;6.10;99.90;;;;;;5091169;28;20485;-66
2023/02/01 10:45:18;;;;;;;13.00;2.30;;;6.20;99.90;;;;;;5090865;28;20048;-65
2023/02/01 10:47:45;;;;;;;7.95;1.90;;;6.20;99.90;;;;;;5088368;28;20135;-66
2023/02/01 10:50:29;;;;;;;8.88;2.40;;;6.30;99.90;;;;;;5120627;27;20482;-66
2023/02/01 10:53:02;;;;;;;8.40;2.22;;;6.30;99.90;;;;;;5092031;28;20458;-66
2023/02/01 10:55:31;;;;;;;9.60;2.03;;;6.30;99.90;;;;;;5089002;28;20438;-66
2023/02/01 10:57:59;;;;;;;17.90;3.38;;;6.40;99.90;;;;;;5087791;28;20535;-66
2023/02/01 11:00:25;;;;;;;11.80;2.50;;;6.50;99.90;;;;;;5088792;28;20103;-66
2023/02/01 11:02:52;;;;;;;14.73;2.05;;;6.60;99.90;;;;;;5095312;28;20044;-66
2023/02/01 11:05:18;;;;;;;26.40;6.32;;;6.70;99.90;;;;;;5087907;28;20040;-66
2023/02/01 11:07:54;;;;;;;20.45;7.50;;;6.50;99.90;;;;;;5088917;28;20051;-65
2023/02/01 11:10:40;;;;;;;19.35;5.40;;;5.20;99.90;;;;;;5085909;28;20059;-65
2023/02/01 11:13:16;;;;;;;10.40;3.75;;;4.30;99.90;;;;;;5096369;28;20071;-65
2023/02/01 11:15:46;;;;;;;16.42;5.25;;;3.90;99.90;;;;;;5103252;28;20052;-65
2023/02/01 11:18:19;;;;;;;;;;;3.60;99.90;;;;;;5106555;28;20063;-65
2023/02/01 11:20:49;;;;;;;8.73;2.33;;;3.40;99.90;;;;;;5098005;28;19920;-65
2023/02/01 11:23:17;;;;;;;15.98;4.78;;;3.30;99.90;;;;;;5087237;28;20047;-65
2023/02/01 11:25:53;;;;;;;22.95;7.00;;;3.20;99.90;;;;;;5087133;28;20044;-65
2023/02/01 11:28:27;;;;;;;10.07;3.15;;;3.20;99.90;;;;;;5085625;28;20136;-65
2023/02/01 11:30:56;;;;;;;20.23;4.35;;;3.20;99.90;;;;;;5089111;28;20044;-65
2023/02/01 11:33:29;;;;;;;28.48;6.90;;;3.20;99.90;;;;;;5088650;28;20051;-65
2023/02/01 11:35:58;;;;;;;43.38;11.70;;;3.30;99.90;;;;;;5087611;28;20094;-65
2023/02/01 11:38:32;;;;;;;21.65;4.85;;;3.30;99.90;;;;;;5087457;28;20040;-65
2023/02/01 11:41:22;;;;;;;30.48;8.70;;;3.30;99.90;;;;;;5120687;27;20048;-65
2023/02/01 11:43:56;;;;;;;31.77;9.60;;;3.20;99.90;;;;;;5087758;28;20044;-65
2023/02/01 11:46:27;;;;;;;38.60;9.55;;;3.20;99.90;;;;;;5098818;28;20309;-64
2023/02/01 11:48:55;;;;;;;24.60;5.88;;;3.20;99.90;;;;;;5098632;28;20490;-64
2023/02/01 11:51:36;;;;;;;41.42;10.48;;;3.10;99.90;;;;;;5120895;27;20536;-64
2023/02/01 11:54:15;;;;;;;16.30;3.40;;;3.30;99.90;;;;;;5087198;28;20044;-63
2023/02/01 11:56:49;;;;;;;19.75;4.85;;;3.30;99.90;;;;;;5089892;28;20390;-65
2023/02/01 11:59:44;;;;;;;23.45;5.47;;;3.30;99.90;;;;;;5104365;28;20039;-64
2023/02/01 12:02:25;;;;;;;14.30;2.80;;;3.40;99.90;;;;;;5097523;28;20092;-64
2023/02/01 12:05:16;;;;;;;18.02;4.47;;;3.50;99.90;;;;;;5083791;28;20074;-64
2023/02/01 12:08:00;;;;;;;;;;;3.60;99.90;;;;;;5097084;28;20392;-65
2023/02/01 12:10:35;;;;;;;16.08;2.40;;;3.70;99.90;;;;;;5083397;28;20002;-65
2023/02/01 12:13:39;;;;;;;8.50;1.73;;;3.70;99.90;;;;;;5086334;28;20051;-64
2023/02/01 12:16:52;;;;;;;19.33;1.80;;;3.80;99.90;;;;;;5097398;28;20043;-65
2023/02/01 12:19:32;;;;;;;21.83;2.95;;;3.90;99.90;;;;;;5077182;28;20497;-65
2023/02/01 12:22:04;;;;;;;;;;;4.00;99.90;;;;;;5086864;28;20043;-65
2023/02/01 12:24:35;;;;;;;17.42;2.30;;;4.10;99.90;;;;;;5086659;28;19927;-65
2023/02/01 12:27:52;;;;;;;10.75;2.15;;;4.20;99.90;;;;;;5087593;28;20044;-65
2023/02/01 12:30:42;;;;;;;9.25;1.55;;;4.20;99.90;;;;;;5086681;28;20044;-65
2023/02/01 12:33:14;;;;;;;18.10;2.45;;;4.30;99.90;;;;;;5087804;28;20039;-65
2023/02/01 12:35:49;;;;;;;17.55;2.08;;;4.30;99.90;;;;;;5090569;28;20055;-65
2023/02/01 12:38:23;;;;;;;19.73;3.60;;;4.40;99.90;;;;;;5087634;28;20039;-64
2023/02/01 12:41:15;;;;;;;33.67;5.82;;;4.50;99.90;;;;;;5086419;28;20082;-65
2023/02/01 12:44:11;;;;;;;26.05;5.03;;;4.70;99.90;;;;;;5085572;28;20051;-65
2023/02/01 12:46:52;;;;;;;34.75;7.88;;;4.80;99.90;;;;;;5093200;28;20043;-65
2023/02/01 12:49:41;;;;;;;28.63;5.60;;;4.90;99.90;;;;;;5084520;28;20048;-65
2023/02/01 12:52:38;;;;;;;33.97;5.00;;;5.00;99.90;;;;;;5086086;28;20048;-65
2023/02/01 12:55:25;;;;;;;36.45;5.25;;;5.00;99.90;;;;;;5081793;28;20441;-65
2023/02/01 12:58:22;;;;;;;44.35;7.10;;;5.20;99.90;;;;;;5093845;28;20127;-65
2023/02/01 13:01:08;;;;;;;53.90;8.85;;;5.40;99.90;;;;;;5085760;28;20155;-65
2023/02/01 13:03:57;;;;;;;58.03;9.98;;;5.80;99.90;;;;;;5086496;28;20571;-65
2023/02/01 13:06:32;;;;;;;53.92;7.70;;;6.00;99.90;;;;;;5088589;28;20048;-65
2023/02/01 13:09:26;;;;;;;51.33;7.97;;;6.20;99.90;;;;;;5100843;28;20044;-65
2023/02/01 13:11:58;;;;;;;64.80;9.60;;;6.30;99.90;;;;;;5091759;28;20084;-64
2023/02/01 13:14:37;;;;;;;45.95;6.32;;;6.60;99.90;;;;;;5088304;28;20076;-65
2023/02/01 13:17:09;;;;;;;71.85;10.65;;;6.80;99.90;;;;;;5091574;28;20047;-65
2023/02/01 13:19:56;;;;;;;60.17;10.88;;;7.00;99.90;;;;;;5084102;28;20036;-65
2023/02/01 13:22:25;;;;;;;61.17;11.23;;;7.30;99.90;;;;;;5084588;28;20055;-65
2023/02/01 13:25:02;;;;;;;53.05;11.73;;;7.40;99.90;;;;;;5085215;28;20040;-65
2023/02/01 13:27:30;;;;;;;50.70;10.32;;;7.40;99.90;;;;;;5089541;28;20055;-65
2023/02/01 13:30:05;;;;;;;42.90;8.52;;;7.40;99.90;;;;;;5085015;28;20039;-65
2023/02/01 13:33:04;;;;;;;56.13;9.07;;;7.40;99.90;;;;;;5089071;28;20051;-65
2023/02/01 13:35:56;;;;;;;44.95;8.43;;;7.50;99.90;;;;;;5092663;28;20070;-65